createdAt,value
2022-08-28T00:00:42.907Z,100613.53
2022-08-28T00:03:13.845Z,100605.88
2022-08-28T00:05:44.644Z,100605.03
2022-08-28T00:08:16.375Z,100601.16
2022-08-28T00:10:45.067Z,100602.13
2022-08-28T00:13:19.784Z,100600.22
2022-08-28T00:15:51.715Z,100607.22
2022-08-28T00:18:21.478Z,100606.66
2022-08-28T00:20:51.943Z,100607.38
2022-08-28T00:23:21.038Z,100611.56
2022-08-28T00:25:49.553Z,100602.16
2022-08-28T00:28:24.118Z,100603.16
2022-08-28T00:30:56.364Z,100610.59
2022-08-28T00:33:35.342Z,100613.63
2022-08-28T00:36:04.752Z,100604.25
2022-08-28T00:38:33.137Z,100607.09
2022-08-28T00:41:04.898Z,100606.97
2022-08-28T00:43:41.152Z,100611.38
2022-08-28T00:46:21.857Z,100607.09
2022-08-28T00:48:51.187Z,100607.50
2022-08-28T00:51:39.797Z,100603.66
2022-08-28T00:54:09.139Z,100606.41
2022-08-28T00:56:40.977Z,100605.28
2022-08-28T00:59:13.234Z,100608.00
2022-08-28T01:01:41.598Z,100611.72
2022-08-28T01:04:10.857Z,100610.69
2022-08-28T01:06:39.378Z,100615.09
2022-08-28T01:09:07.678Z,100613.38
2022-08-28T01:11:36.457Z,100609.38
2022-08-28T01:14:06.580Z,100614.22
2022-08-28T01:16:36.287Z,100617.78
2022-08-28T01:19:10.208Z,100624.19
2022-08-28T01:21:48.179Z,100614.34
2022-08-28T01:24:19.667Z,100614.75
2022-08-28T01:26:48.170Z,100612.03
2022-08-28T01:29:17.072Z,100605.88
2022-08-28T01:31:45.547Z,100613.31
2022-08-28T01:34:14.494Z,100614.97
2022-08-28T01:36:43.757Z,100617.38
2022-08-28T01:39:17.459Z,100613.75
2022-08-28T01:41:48.823Z,100612.59
2022-08-28T01:44:18.674Z,100610.53
2022-08-28T01:46:47.910Z,100615.06
2022-08-28T01:49:16.707Z,100613.72
2022-08-28T01:51:45.144Z,100616.19
2022-08-28T01:54:14.063Z,100611.91
2022-08-28T01:56:45.228Z,100610.84
2022-08-28T01:59:15.544Z,100610.03
2022-08-28T02:01:44.714Z,100605.91
2022-08-28T02:04:13.780Z,100606.31
2022-08-28T02:06:42.730Z,100604.41
2022-08-28T02:09:14.365Z,100609.72
2022-08-28T02:11:46.581Z,100612.81
2022-08-28T02:14:15.954Z,100611.47
2022-08-28T02:16:44.326Z,100613.47
2022-08-28T02:19:13.042Z,100622.09
2022-08-28T02:21:42.622Z,100614.56
2022-08-28T02:24:11.197Z,100614.16
2022-08-28T02:26:40.017Z,100626.28
2022-08-28T02:29:08.262Z,100613.31
2022-08-28T02:31:36.639Z,100620.69
2022-08-28T02:34:06.790Z,100614.91
2022-08-28T02:36:35.232Z,100614.81
2022-08-28T02:39:04.055Z,100615.81
2022-08-28T02:41:32.568Z,100617.28
2022-08-28T02:44:00.982Z,100620.09
2022-08-28T02:46:29.529Z,100616.03
2022-08-28T02:48:58.073Z,100625.97
2022-08-28T02:51:26.502Z,100624.66
2022-08-28T02:53:54.897Z,100629.28
2022-08-28T02:56:23.217Z,100639.22
2022-08-28T02:58:51.970Z,100638.13
2022-08-28T03:01:22.746Z,100637.25
2022-08-28T03:03:51.857Z,100650.13
2022-08-28T03:06:20.268Z,100657.44
2022-08-28T03:08:48.638Z,100649.44
2022-08-28T03:11:17.069Z,100651.09
2022-08-28T03:13:45.457Z,100656.31
2022-08-28T03:16:14.896Z,100670.72
2022-08-28T03:18:43.467Z,100664.94
2022-08-28T03:21:12.253Z,100666.69
2022-08-28T03:23:41.113Z,100670.84
2022-08-28T03:26:16.661Z,100675.69
2022-08-28T03:28:51.108Z,100680.44
2022-08-28T03:31:22.586Z,100683.59
2022-08-28T03:33:51.480Z,100678.44
2022-08-28T03:36:23.628Z,100678.22
2022-08-28T03:38:54.523Z,100685.69
2022-08-28T03:41:26.197Z,100694.09
2022-08-28T03:43:54.507Z,100697.03
2022-08-28T03:46:24.992Z,100704.03
2022-08-28T03:48:55.546Z,100698.41
2022-08-28T03:51:30.045Z,100703.66
2022-08-28T03:54:00.167Z,100695.78
2022-08-28T03:56:31.308Z,100693.09
2022-08-28T03:59:01.950Z,100696.56
2022-08-28T04:01:30.447Z,100703.22
2022-08-28T04:03:59.053Z,100710.81
2022-08-28T04:06:28.908Z,100712.22
2022-08-28T04:08:59.895Z,100720.03
2022-08-28T04:11:29.140Z,100722.50
2022-08-28T04:13:58.739Z,100721.28
2022-08-28T04:16:27.208Z,100729.28
2022-08-28T04:18:55.643Z,100733.34
2022-08-28T04:21:27.072Z,100731.03
2022-08-28T04:23:56.343Z,100739.50
2022-08-28T04:26:27.870Z,100736.25
2022-08-28T04:28:57.778Z,100742.88
2022-08-28T04:31:32.497Z,100750.25
2022-08-28T04:34:07.381Z,100751.69
2022-08-28T04:36:36.343Z,100754.03
2022-08-28T04:39:09.558Z,100746.84
2022-08-28T04:41:39.698Z,100749.31
2022-08-28T04:44:08.661Z,100748.09
2022-08-28T04:46:37.873Z,100763.50
2022-08-28T04:49:06.839Z,100759.69
2022-08-28T04:51:37.827Z,100758.44
2022-08-28T04:54:11.839Z,100757.00
2022-08-28T04:56:41.587Z,100752.38
2022-08-28T04:59:10.388Z,100758.59
2022-08-28T05:01:41.202Z,100761.28
2022-08-28T05:04:10.674Z,100760.44
2022-08-28T05:06:47.373Z,100762.41
2022-08-28T05:09:19.268Z,100764.38
2022-08-28T05:11:49.138Z,100762.03
2022-08-28T05:14:18.219Z,100762.03
2022-08-28T05:16:52.003Z,100759.56
2022-08-28T05:19:21.879Z,100760.44
2022-08-28T05:21:50.218Z,100759.56
2022-08-28T05:24:19.058Z,100765.97
2022-08-28T05:26:48.041Z,100758.59
2022-08-28T05:29:17.765Z,100761.97
2022-08-28T05:31:46.603Z,100760.16
2022-08-28T05:34:16.168Z,100769.31
2022-08-28T05:36:44.799Z,100758.03
2022-08-28T05:39:14.243Z,100764.13
2022-08-28T05:41:44.548Z,100773.03
2022-08-28T05:44:16.013Z,100766.13
2022-08-28T05:46:48.662Z,100767.94
2022-08-28T05:49:19.235Z,100765.09
2022-08-28T05:51:48.163Z,100767.78
2022-08-28T05:54:17.070Z,100773.25
2022-08-28T05:56:46.828Z,100774.09
2022-08-28T05:59:16.859Z,100775.81
2022-08-28T06:01:48.551Z,100765.97
2022-08-28T06:04:27.313Z,100775.72
2022-08-28T06:06:56.665Z,100775.22
2022-08-28T06:09:30.282Z,100777.13
2022-08-28T06:12:00.821Z,100775.31
2022-08-28T06:14:30.900Z,100778.06
2022-08-28T06:17:00.663Z,100777.22
2022-08-28T06:19:31.004Z,100771.16
2022-08-28T06:22:07.615Z,100772.31
2022-08-28T06:24:36.578Z,100776.03
2022-08-28T06:27:05.099Z,100776.19
2022-08-28T06:29:33.544Z,100777.44
2022-08-28T06:32:05.361Z,100784.00
2022-08-28T06:34:34.270Z,100786.78
2022-08-28T06:37:02.737Z,100785.22
2022-08-28T06:39:31.148Z,100783.56
2022-08-28T06:41:59.538Z,100781.97
2022-08-28T06:44:29.742Z,100776.75
2022-08-28T06:46:58.588Z,100773.31
2022-08-28T06:49:26.898Z,100783.19
2022-08-28T06:51:56.003Z,100784.19
2022-08-28T06:54:24.503Z,100784.03
2022-08-28T06:56:53.938Z,100786.53
2022-08-28T06:59:22.263Z,100780.19
2022-08-28T07:01:50.573Z,100778.75
2022-08-28T07:04:19.044Z,100785.16
2022-08-28T07:06:54.108Z,100778.84
2022-08-28T07:09:23.047Z,100785.16
2022-08-28T07:11:52.199Z,100783.44
2022-08-28T07:14:20.590Z,100782.47
2022-08-28T07:16:48.905Z,100783.44
2022-08-28T07:19:17.622Z,100781.78
2022-08-28T07:21:47.537Z,100781.78
2022-08-28T07:24:17.139Z,100772.09
2022-08-28T07:26:46.743Z,100776.53
2022-08-28T07:29:16.180Z,100779.19
2022-08-28T07:31:50.417Z,100787.25
2022-08-28T07:34:22.257Z,100782.81
2022-08-28T07:36:57.298Z,100781.94
2022-08-28T07:39:25.633Z,100782.91
2022-08-28T07:41:54.068Z,100774.88
2022-08-28T07:44:40.832Z,100783.84
2022-08-28T07:47:10.584Z,100774.16
2022-08-28T07:49:40.657Z,100780.75
2022-08-28T07:52:10.258Z,100780.09
2022-08-28T07:54:41.229Z,100787.44
2022-08-28T07:57:11.944Z,100782.28
2022-08-28T07:59:42.428Z,100780.63
2022-08-28T08:02:13.873Z,100781.81
2022-08-28T08:04:42.430Z,100781.97
2022-08-28T08:07:11.039Z,100782.19
2022-08-28T08:09:41.142Z,100778.63
2022-08-28T08:12:11.057Z,100776.81
2022-08-28T08:14:41.544Z,100770.66
2022-08-28T08:17:10.823Z,100769.81
2022-08-28T08:19:39.538Z,100763.59
2022-08-28T08:22:08.338Z,100765.50
2022-08-28T08:24:36.713Z,100772.75
2022-08-28T08:27:05.403Z,100773.84
2022-08-28T08:29:37.301Z,100775.84
2022-08-28T08:32:09.457Z,100778.78
2022-08-28T08:34:41.772Z,100777.22
2022-08-28T08:37:10.666Z,100773.75
2022-08-28T08:39:39.307Z,100773.06
2022-08-28T08:42:30.923Z,100772.28
2022-08-28T08:45:04.312Z,100771.50
2022-08-28T08:47:58.743Z,100773.31
2022-08-28T08:50:33.443Z,100767.97
2022-08-28T08:53:25.459Z,100759.94
2022-08-28T08:55:57.883Z,100766.16
2022-08-28T08:58:29.868Z,100761.75
2022-08-28T09:01:07.006Z,100763.53
2022-08-28T09:04:06.258Z,100762.00
2022-08-28T09:06:52.288Z,100763.88
2022-08-28T09:09:37.898Z,100760.44
2022-08-28T09:12:10.303Z,100760.44
2022-08-28T09:15:06.673Z,100760.59
2022-08-28T09:17:37.559Z,100754.53
2022-08-28T09:20:13.243Z,100759.97
2022-08-28T09:22:46.701Z,100758.25
2022-08-28T09:25:46.939Z,100760.22
2022-08-28T09:28:33.300Z,100763.13
2022-08-28T09:31:09.041Z,100761.56
2022-08-28T09:33:42.997Z,100766.13
2022-08-28T09:36:33.467Z,100761.88
2022-08-28T09:39:10.423Z,100762.03
2022-08-28T09:42:02.093Z,100762.34
2022-08-28T09:44:30.983Z,100764.38
2022-08-28T09:47:00.332Z,100761.09
2022-08-28T09:49:31.629Z,100762.81
2022-08-28T09:52:00.532Z,100763.75
2022-08-28T09:54:39.721Z,100764.94
2022-08-28T09:57:09.139Z,100758.03
2022-08-28T09:59:37.547Z,100765.19
2022-08-28T10:02:36.018Z,100770.59
2022-08-28T10:05:11.699Z,100773.25
2022-08-28T10:07:47.313Z,100770.66
2022-08-28T10:10:42.895Z,100776.97
2022-08-28T10:13:29.062Z,100773.56
2022-08-28T10:16:23.570Z,100775.63
2022-08-28T10:18:54.582Z,100773.81
2022-08-28T10:21:33.389Z,100774.84
2022-08-28T10:24:13.384Z,100769.56
2022-08-28T10:27:00.659Z,100779.47
2022-08-28T10:29:35.203Z,100771.69
2022-08-28T10:32:21.403Z,100768.28
2022-08-28T10:35:09.297Z,100769.09
2022-08-28T10:38:10.002Z,100771.59
2022-08-28T10:40:53.137Z,100776.09
2022-08-28T10:43:41.458Z,100776.00
2022-08-28T10:46:26.490Z,100773.31
2022-08-28T10:49:05.297Z,100777.56
2022-08-28T10:51:47.857Z,100774.13
2022-08-28T10:54:32.102Z,100775.84
2022-08-28T10:57:25.787Z,100771.47
2022-08-28T10:59:55.538Z,100776.63
2022-08-28T11:02:27.340Z,100775.72
2022-08-28T11:04:58.757Z,100778.19
2022-08-28T11:07:36.023Z,100772.88
2022-08-28T11:10:21.914Z,100781.69
2022-08-28T11:12:54.103Z,100773.66
2022-08-28T11:15:37.024Z,100772.72
2022-08-28T11:18:18.745Z,100778.06
2022-08-28T11:21:25.583Z,100783.41
2022-08-28T11:24:23.698Z,100781.69
2022-08-28T11:27:05.388Z,100783.53
2022-08-28T11:30:03.857Z,100784.19
2022-08-28T11:32:53.433Z,100784.81
2022-08-28T11:35:39.353Z,100786.47
2022-08-28T11:38:08.627Z,100790.09
2022-08-28T11:40:38.010Z,100790.09
2022-08-28T11:43:20.182Z,100797.25
2022-08-28T11:45:51.456Z,100795.44
2022-08-28T11:48:38.343Z,100785.59
2022-08-28T11:51:26.259Z,100782.06
2022-08-28T11:54:22.193Z,100789.16
2022-08-28T11:57:14.098Z,100793.63
2022-08-28T12:00:09.297Z,100788.28
2022-08-28T12:02:40.493Z,100786.38
2022-08-28T12:05:16.747Z,100785.47
2022-08-28T12:07:48.338Z,100778.31
2022-08-28T12:10:27.592Z,100781.91
2022-08-28T12:13:08.500Z,100782.84
2022-08-28T12:15:40.393Z,100789.16
2022-08-28T12:18:16.498Z,100787.41
2022-08-28T12:21:04.338Z,100787.47
2022-08-28T12:23:43.061Z,100790.97
2022-08-28T12:26:20.188Z,100796.38
2022-08-28T12:28:52.818Z,100795.44
2022-08-28T12:32:14.580Z,100796.53
2022-08-28T12:35:05.652Z,100800.44
2022-08-28T12:37:52.565Z,100797.84
2022-08-28T12:40:52.023Z,100807.69
2022-08-28T12:43:25.438Z,100807.75
2022-08-28T12:46:03.101Z,100801.47
2022-08-28T12:48:49.023Z,100808.41
2022-08-28T12:51:23.544Z,100812.78
2022-08-28T12:53:53.381Z,100810.22
2022-08-28T12:56:23.958Z,100810.34
2022-08-28T12:58:53.298Z,100812.16
2022-08-28T13:01:33.123Z,100815.78
2022-08-28T13:04:20.183Z,100813.97
2022-08-28T13:06:48.468Z,100817.63
2022-08-28T13:09:20.018Z,100814.03
2022-08-28T13:11:52.662Z,100818.44
2022-08-28T13:14:46.628Z,100820.03
2022-08-28T13:17:18.417Z,100812.00
2022-08-28T13:19:46.747Z,100821.66
2022-08-28T13:22:35.380Z,100815.31
2022-08-28T13:25:06.378Z,100823.34
2022-08-28T13:27:39.907Z,100827.00
2022-08-28T13:30:24.800Z,100820.81
2022-08-28T13:33:15.858Z,100820.81
2022-08-28T13:35:44.498Z,100822.53
2022-08-28T13:38:17.938Z,100825.19
2022-08-28T13:40:57.419Z,100825.16
2022-08-28T13:43:29.140Z,100830.50
2022-08-28T13:45:57.748Z,100832.22
2022-08-28T13:48:28.647Z,100836.69
2022-08-28T13:51:20.903Z,100837.47
2022-08-28T13:53:50.899Z,100839.13
2022-08-28T13:56:21.911Z,100840.91
2022-08-28T13:58:57.242Z,100847.22
2022-08-28T14:01:49.605Z,100848.25
2022-08-28T14:04:18.027Z,100847.28
2022-08-28T14:06:46.678Z,100850.91
2022-08-28T14:09:17.722Z,100858.94
2022-08-28T14:11:52.738Z,100857.91
2022-08-28T14:14:21.135Z,100865.69
2022-08-28T14:16:51.244Z,100857.63
2022-08-28T14:19:19.858Z,100866.19
2022-08-28T14:21:48.428Z,100866.94
2022-08-28T14:24:18.948Z,100879.31
2022-08-28T14:26:48.218Z,100876.50
2022-08-28T14:29:18.259Z,100874.47
2022-08-28T14:31:47.116Z,100876.22
2022-08-28T14:34:21.617Z,100883.28
2022-08-28T14:36:56.020Z,100883.13
2022-08-28T14:39:27.643Z,100887.38
2022-08-28T14:41:56.498Z,100878.25
2022-08-28T14:44:27.493Z,100885.34
2022-08-28T14:46:57.208Z,100881.72
2022-08-28T14:49:27.334Z,100892.19
2022-08-28T14:51:58.258Z,100885.66
2022-08-28T14:54:27.379Z,100889.91
2022-08-28T14:56:56.186Z,100887.94
2022-08-28T14:59:28.499Z,100886.75
2022-08-28T15:02:01.585Z,100882.78
2022-08-28T15:04:38.578Z,100887.75
2022-08-28T15:07:11.648Z,100885.22
2022-08-28T15:09:42.541Z,100884.81
2022-08-28T15:12:12.504Z,100890.59
2022-08-28T15:14:40.880Z,100894.00
2022-08-28T15:17:24.138Z,100897.63
2022-08-28T15:20:02.397Z,100890.69
2022-08-28T15:22:30.741Z,100890.84
2022-08-28T15:24:59.587Z,100899.84
2022-08-28T15:27:27.860Z,100892.31
2022-08-28T15:29:56.089Z,100896.56
2022-08-28T15:32:24.388Z,100891.94
2022-08-28T15:34:53.388Z,100899.50
2022-08-28T15:37:21.628Z,100891.13
2022-08-28T15:40:08.448Z,100896.06
2022-08-28T15:42:36.723Z,100888.38
2022-08-28T15:45:05.213Z,100894.44
2022-08-28T15:47:33.442Z,100893.34
2022-08-28T15:50:02.098Z,100892.53
2022-08-28T15:52:33.052Z,100895.91
2022-08-28T15:55:01.364Z,100891.41
2022-08-28T15:57:29.773Z,100888.38
2022-08-28T15:59:58.156Z,100889.84
2022-08-28T16:02:27.405Z,100887.81
2022-08-28T16:04:55.987Z,100884.88
2022-08-28T16:07:24.337Z,100890.91
2022-08-28T16:09:53.308Z,100887.00
2022-08-28T16:12:21.874Z,100881.31
2022-08-28T16:14:51.203Z,100879.81
2022-08-28T16:17:20.051Z,100881.09
2022-08-28T16:19:48.349Z,100881.47
2022-08-28T16:22:17.280Z,100885.31
2022-08-28T16:24:46.578Z,100884.00
2022-08-28T16:27:15.893Z,100887.19
2022-08-28T16:29:49.506Z,100884.22
2022-08-28T16:32:21.301Z,100877.63
2022-08-28T16:34:49.897Z,100877.25
2022-08-28T16:37:21.082Z,100876.78
2022-08-28T16:39:49.850Z,100878.81
2022-08-28T16:42:18.395Z,100885.44
2022-08-28T16:44:46.643Z,100882.38
2022-08-28T16:47:15.158Z,100882.00
2022-08-28T16:49:43.423Z,100889.69
2022-08-28T16:52:11.729Z,100890.28
2022-08-28T16:54:47.518Z,100885.19
2022-08-28T16:57:17.842Z,100885.50
2022-08-28T16:59:46.673Z,100885.94
2022-08-28T17:02:15.706Z,100889.19
2022-08-28T17:04:47.085Z,100895.06
2022-08-28T17:07:16.273Z,100894.56
2022-08-28T17:09:44.802Z,100890.41
2022-08-28T17:12:13.128Z,100899.03
2022-08-28T17:14:43.407Z,100898.84
2022-08-28T17:17:12.303Z,100893.06
2022-08-28T17:19:41.222Z,100897.09
2022-08-28T17:22:27.802Z,100892.28
2022-08-28T17:24:57.068Z,100894.09
2022-08-28T17:27:25.619Z,100896.91
2022-08-28T17:29:56.578Z,100897.59
2022-08-28T17:32:25.242Z,100894.66
2022-08-28T17:34:54.423Z,100891.59
2022-08-28T17:37:24.825Z,100898.06
2022-08-28T17:39:54.372Z,100897.31
2022-08-28T17:42:22.829Z,100895.09
2022-08-28T17:44:51.122Z,100891.66
2022-08-28T17:47:19.463Z,100895.03
2022-08-28T17:50:01.238Z,100883.75
2022-08-28T17:52:30.543Z,100889.00
2022-08-28T17:54:59.063Z,100886.75
2022-08-28T17:57:31.159Z,100886.31
2022-08-28T18:00:01.457Z,100885.03
2022-08-28T18:02:33.938Z,100885.22
2022-08-28T18:05:03.102Z,100878.97
2022-08-28T18:07:31.878Z,100885.41
2022-08-28T18:10:00.339Z,100883.88
2022-08-28T18:12:28.963Z,100875.25
2022-08-28T18:14:57.624Z,100871.66
2022-08-28T18:17:26.198Z,100869.03
2022-08-28T18:19:54.818Z,100873.63
2022-08-28T18:22:26.435Z,100863.38
2022-08-28T18:24:57.458Z,100866.44
2022-08-28T18:27:28.839Z,100864.91
2022-08-28T18:29:57.793Z,100858.16
2022-08-28T18:32:26.750Z,100860.53
2022-08-28T18:34:55.058Z,100854.56
2022-08-28T18:37:23.353Z,100860.75
2022-08-28T18:39:51.771Z,100849.13
2022-08-28T18:42:23.148Z,100843.88
2022-08-28T18:44:51.393Z,100846.09
2022-08-28T18:47:19.803Z,100846.97
2022-08-28T18:49:48.088Z,100845.97
2022-08-28T18:52:16.388Z,100843.41
2022-08-28T18:54:44.739Z,100843.06
2022-08-28T18:57:15.060Z,100846.00
2022-08-28T18:59:43.543Z,100843.66
2022-08-28T19:02:13.742Z,100836.81
2022-08-28T19:04:43.658Z,100835.91
2022-08-28T19:07:13.833Z,100829.03
2022-08-28T19:09:42.900Z,100821.75
2022-08-28T19:12:11.303Z,100827.50
2022-08-28T19:14:39.863Z,100816.75
2022-08-28T19:17:10.898Z,100819.22
2022-08-28T19:19:39.800Z,100813.72
2022-08-28T19:22:08.098Z,100809.19
2022-08-28T19:24:36.389Z,100816.97
2022-08-28T19:27:05.463Z,100805.06
2022-08-28T19:29:34.033Z,100801.81
2022-08-28T19:32:02.343Z,100801.31
2022-08-28T19:34:30.703Z,100797.78
2022-08-28T19:36:59.784Z,100787.44
2022-08-28T19:39:28.628Z,100787.19
2022-08-28T19:41:57.718Z,100792.25
2022-08-28T19:44:26.093Z,100783.84
2022-08-28T19:46:54.583Z,100782.44
2022-08-28T19:49:23.058Z,100780.47
2022-08-28T19:51:52.122Z,100780.34
2022-08-28T19:54:20.608Z,100772.63
2022-08-28T19:56:49.473Z,100772.78
2022-08-28T19:59:17.779Z,100774.53
2022-08-28T20:01:47.372Z,100766.25
2022-08-28T20:04:18.532Z,100773.38
2022-08-28T20:06:48.103Z,100760.91
2022-08-28T20:09:18.263Z,100757.28
2022-08-28T20:11:47.785Z,100761.53
2022-08-28T20:14:18.424Z,100761.66
2022-08-28T20:16:51.908Z,100750.78
2022-08-28T20:19:21.483Z,100747.66
2022-08-28T20:21:51.059Z,100744.13
2022-08-28T20:24:24.588Z,100742.84
2022-08-28T20:26:53.901Z,100738.44
2022-08-28T20:29:24.914Z,100740.78
2022-08-28T20:31:53.804Z,100732.72
2022-08-28T20:34:22.503Z,100724.38
2022-08-28T20:36:50.900Z,100724.13
2022-08-28T20:39:19.855Z,100728.59
2022-08-28T20:41:50.263Z,100723.00
2022-08-28T20:44:21.102Z,100713.03
2022-08-28T20:46:51.372Z,100716.34
2022-08-28T20:49:22.908Z,100726.75
2022-08-28T20:51:57.683Z,100711.13
2022-08-28T20:54:35.508Z,100717.34
2022-08-28T20:57:08.434Z,100708.47
2022-08-28T20:59:39.661Z,100704.16
2022-08-28T21:02:14.838Z,100706.75
2022-08-28T21:04:45.017Z,100699.69
2022-08-28T21:07:15.618Z,100698.69
2022-08-28T21:10:07.073Z,100696.50
2022-08-28T21:12:32.912Z,100690.19
2022-08-28T21:15:01.422Z,100689.88
2022-08-28T21:17:30.705Z,100688.91
2022-08-28T21:20:04.762Z,100679.66
2022-08-28T21:22:35.115Z,100676.56
2022-08-28T21:25:04.817Z,100669.34
2022-08-28T21:27:33.138Z,100678.50
2022-08-28T21:30:02.897Z,100671.69
2022-08-28T21:32:33.623Z,100672.41
2022-08-28T21:35:03.308Z,100667.97
2022-08-28T21:37:32.018Z,100668.97
2022-08-28T21:40:01.711Z,100662.09
2022-08-28T21:42:30.149Z,100666.16
2022-08-28T21:44:58.577Z,100667.28
2022-08-28T21:47:27.551Z,100665.38
2022-08-28T21:49:58.258Z,100656.88
2022-08-28T21:52:31.557Z,100653.13
2022-08-28T21:55:03.200Z,100661.16
2022-08-28T21:57:31.953Z,100652.97
2022-08-28T22:00:00.660Z,100646.28
2022-08-28T22:02:29.486Z,100647.84
2022-08-28T22:04:57.843Z,100643.31
2022-08-28T22:07:26.588Z,100645.22
2022-08-28T22:09:54.988Z,100640.34
2022-08-28T22:12:23.693Z,100634.50
2022-08-28T22:14:52.010Z,100628.31
2022-08-28T22:17:21.461Z,100631.38
2022-08-28T22:19:49.863Z,100621.50
2022-08-28T22:22:37.550Z,100625.63
2022-08-28T22:25:06.942Z,100623.53
2022-08-28T22:27:35.793Z,100618.78
2022-08-28T22:30:05.457Z,100620.00
2022-08-28T22:32:34.258Z,100617.16
2022-08-28T22:35:02.635Z,100618.78
2022-08-28T22:37:31.028Z,100608.22
2022-08-28T22:40:02.555Z,100613.25
2022-08-28T22:42:38.368Z,100614.81
2022-08-28T22:45:07.948Z,100602.19
2022-08-28T22:47:37.173Z,100604.53
2022-08-28T22:50:06.137Z,100605.06
2022-08-28T22:52:34.683Z,100607.97
2022-08-28T22:55:03.222Z,100604.03
2022-08-28T22:57:35.220Z,100601.81
2022-08-28T23:00:05.933Z,100604.06
2022-08-28T23:02:34.616Z,100596.88
2022-08-28T23:05:03.018Z,100604.84
2022-08-28T23:07:31.308Z,100600.19
2022-08-28T23:09:59.563Z,100597.03
2022-08-28T23:12:27.878Z,100594.97
2022-08-28T23:14:56.200Z,100593.47
2022-08-28T23:17:24.657Z,100593.22
2022-08-28T23:19:53.073Z,100593.47
2022-08-28T23:22:21.737Z,100584.81
2022-08-28T23:24:50.048Z,100593.75
2022-08-28T23:27:35.816Z,100589.50
2022-08-28T23:30:07.337Z,100589.69
2022-08-28T23:32:35.892Z,100598.59
2022-08-28T23:35:07.298Z,100600.06
2022-08-28T23:37:36.593Z,100593.66
2022-08-28T23:40:09.923Z,100586.69
2022-08-28T23:42:38.827Z,100593.03
2022-08-28T23:45:08.053Z,100594.84
2022-08-28T23:47:40.794Z,100594.31
2022-08-28T23:50:14.738Z,100591.22
2022-08-28T23:52:44.251Z,100582.53
2022-08-28T23:55:14.692Z,100581.59
2022-08-28T23:57:44.103Z,100577.59
